Terminal Aerodrome Forecast
Issued by NWS Shreveport, LA

Home | Current Version | Previous Version | Text Only | Print | Product List | Glossary On
Versions: 1 2 3 4 5 6 7 8 9 10 11 12 13
000
FTUS44 KSHV 311729
TAFSHV
TAF
KSHV 311729Z 3118/0118 14007KT P6SM SCT045 BKN150
     FM312000 15007KT P6SM SCT050 SCT250
     FM010100 16004KT P6SM BKN250
     FM011600 22005KT P6SM SCT035 BKN200=

USA.gov is the U.S. government's official web portal to all federal, state and local government web resources and services.